Terminal Aerodrome Forecast
Issued by NWS El Paso, TX

Current Version | Previous Version | Text Only | Print | Product List | Glossary On
Versions: 1 2 3 4 5 6 7 8 9 10 11 12 13 14 15 16 17
000
FTUS44 KEPZ 231800 RRA
TAFELP
TAF
KELP 231846Z 2319/2418 23005KT P6SM FEW080
     FM232100 22007KT P6SM SCT080 SCT130
     FM240800 19003KT P6SM SKC
     FM241700 22006KT P6SM FEW080 SCT130=

USA.gov is the U.S. government's official web portal to all federal, state and local government web resources and services.